sensor_id;sensor_type;location;lat;lon;timestamp;P1;durP1;ratioP1;P2;durP2;ratioP2
32838;SDS011;19182;41.820;12.808;2023-12-20T00:01:20;9.38;;;5.75;;
32838;SDS011;19182;41.820;12.808;2023-12-20T00:03:46;8.00;;;5.20;;
32838;SDS011;19182;41.820;12.808;2023-12-20T00:06:13;8.30;;;5.00;;
32838;SDS011;19182;41.820;12.808;2023-12-20T00:08:39;10.10;;;6.38;;
32838;SDS011;19182;41.820;12.808;2023-12-20T00:11:06;10.85;;;5.60;;
32838;SDS011;19182;41.820;12.808;2023-12-20T00:13:32;8.52;;;4.47;;
32838;SDS011;19182;41.820;12.808;2023-12-20T00:15:57;14.07;;;5.45;;
32838;SDS011;19182;41.820;12.808;2023-12-20T00:18:24;11.50;;;4.88;;
32838;SDS011;19182;41.820;12.808;2023-12-20T00:20:50;11.38;;;4.57;;
32838;SDS011;19182;41.820;12.808;2023-12-20T00:23:16;5.60;;;3.65;;
32838;SDS011;19182;41.820;12.808;2023-12-20T00:25:41;8.65;;;3.72;;
32838;SDS011;19182;41.820;12.808;2023-12-20T00:28:07;7.57;;;4.10;;
32838;SDS011;19182;41.820;12.808;2023-12-20T00:30:33;8.10;;;5.15;;
32838;SDS011;19182;41.820;12.808;2023-12-20T00:32:58;8.82;;;4.55;;
32838;SDS011;19182;41.820;12.808;2023-12-20T00:35:25;9.80;;;5.20;;
32838;SDS011;19182;41.820;12.808;2023-12-20T00:37:51;7.50;;;4.55;;
32838;SDS011;19182;41.820;12.808;2023-12-20T00:40:17;9.68;;;5.00;;
32838;SDS011;19182;41.820;12.808;2023-12-20T00:42:42;10.18;;;4.45;;
32838;SDS011;19182;41.820;12.808;2023-12-20T00:45:11;11.35;;;4.90;;
32838;SDS011;19182;41.820;12.808;2023-12-20T00:47:39;10.55;;;5.70;;
32838;SDS011;19182;41.820;12.808;2023-12-20T00:50:05;10.40;;;5.50;;
32838;SDS011;19182;41.820;12.808;2023-12-20T00:52:31;11.68;;;5.53;;
32838;SDS011;19182;41.820;12.808;2023-12-20T00:54:57;11.32;;;5.00;;
32838;SDS011;19182;41.820;12.808;2023-12-20T00:57:23;9.35;;;4.72;;
32838;SDS011;19182;41.820;12.808;2023-12-20T00:59:50;9.68;;;5.50;;
32838;SDS011;19182;41.820;12.808;2023-12-20T01:02:17;9.10;;;5.03;;
32838;SDS011;19182;41.820;12.808;2023-12-20T01:04:43;12.52;;;5.13;;
32838;SDS011;19182;41.820;12.808;2023-12-20T01:07:08;8.45;;;4.90;;
32838;SDS011;19182;41.820;12.808;2023-12-20T01:09:35;9.50;;;5.32;;
32838;SDS011;19182;41.820;12.808;2023-12-20T01:12:02;9.02;;;4.75;;
32838;SDS011;19182;41.820;12.808;2023-12-20T01:14:29;8.65;;;5.03;;
32838;SDS011;19182;41.820;12.808;2023-12-20T01:16:55;8.02;;;4.82;;
32838;SDS011;19182;41.820;12.808;2023-12-20T01:19:21;8.60;;;4.63;;
32838;SDS011;19182;41.820;12.808;2023-12-20T01:21:48;9.35;;;5.30;;
32838;SDS011;19182;41.820;12.808;2023-12-20T01:24:15;8.82;;;4.53;;
32838;SDS011;19182;41.820;12.808;2023-12-20T01:26:41;8.02;;;4.30;;
32838;SDS011;19182;41.820;12.808;2023-12-20T01:29:08;8.35;;;5.45;;
32838;SDS011;19182;41.820;12.808;2023-12-20T01:31:36;10.02;;;4.85;;
32838;SDS011;19182;41.820;12.808;2023-12-20T01:34:02;7.03;;;4.28;;
32838;SDS011;19182;41.820;12.808;2023-12-20T01:36:28;9.73;;;5.03;;
32838;SDS011;19182;41.820;12.808;2023-12-20T01:38:55;10.85;;;4.57;;
32838;SDS011;19182;41.820;12.808;2023-12-20T01:41:21;12.05;;;4.93;;
32838;SDS011;19182;41.820;12.808;2023-12-20T01:43:47;10.95;;;4.50;;
32838;SDS011;19182;41.820;12.808;2023-12-20T01:46:12;8.55;;;4.60;;
32838;SDS011;19182;41.820;12.808;2023-12-20T01:48:39;6.18;;;3.45;;
32838;SDS011;19182;41.820;12.808;2023-12-20T01:51:07;7.70;;;4.35;;
32838;SDS011;19182;41.820;12.808;2023-12-20T01:53:34;6.70;;;3.78;;
32838;SDS011;19182;41.820;12.808;2023-12-20T01:56:01;6.85;;;4.00;;
32838;SDS011;19182;41.820;12.808;2023-12-20T01:58:27;6.97;;;4.45;;
32838;SDS011;19182;41.820;12.808;2023-12-20T02:00:53;6.35;;;3.80;;
32838;SDS011;19182;41.820;12.808;2023-12-20T02:03:22;6.10;;;3.83;;
32838;SDS011;19182;41.820;12.808;2023-12-20T02:05:47;8.80;;;3.88;;
32838;SDS011;19182;41.820;12.808;2023-12-20T02:08:13;10.07;;;4.38;;
32838;SDS011;19182;41.820;12.808;2023-12-20T02:10:39;7.40;;;4.32;;
32838;SDS011;19182;41.820;12.808;2023-12-20T02:13:06;7.53;;;3.90;;
32838;SDS011;19182;41.820;12.808;2023-12-20T02:15:32;6.28;;;3.75;;
32838;SDS011;19182;41.820;12.808;2023-12-20T02:17:58;8.52;;;4.43;;
32838;SDS011;19182;41.820;12.808;2023-12-20T02:20:24;10.88;;;4.20;;
32838;SDS011;19182;41.820;12.808;2023-12-20T02:22:51;7.63;;;4.32;;
32838;SDS011;19182;41.820;12.808;2023-12-20T02:25:17;8.95;;;4.72;;
32838;SDS011;19182;41.820;12.808;2023-12-20T02:27:43;8.35;;;3.97;;
32838;SDS011;19182;41.820;12.808;2023-12-20T02:30:09;8.32;;;4.05;;
32838;SDS011;19182;41.820;12.808;2023-12-20T02:32:35;7.93;;;4.65;;
32838;SDS011;19182;41.820;12.808;2023-12-20T02:35:01;9.27;;;4.93;;
32838;SDS011;19182;41.820;12.808;2023-12-20T02:37:27;10.45;;;4.10;;
32838;SDS011;19182;41.820;12.808;2023-12-20T02:39:53;17.70;;;4.18;;
32838;SDS011;19182;41.820;12.808;2023-12-20T02:42:20;13.77;;;5.13;;
32838;SDS011;19182;41.820;12.808;2023-12-20T02:44:47;7.93;;;4.45;;
32838;SDS011;19182;41.820;12.808;2023-12-20T02:47:14;13.18;;;5.13;;
32838;SDS011;19182;41.820;12.808;2023-12-20T02:49:39;8.20;;;4.45;;
32838;SDS011;19182;41.820;12.808;2023-12-20T02:52:07;10.10;;;5.03;;
32838;SDS011;19182;41.820;12.808;2023-12-20T02:54:32;8.23;;;4.90;;
32838;SDS011;19182;41.820;12.808;2023-12-20T02:56:59;11.75;;;5.80;;
32838;SDS011;19182;41.820;12.808;2023-12-20T02:59:26;9.07;;;5.53;;
32838;SDS011;19182;41.820;12.808;2023-12-20T03:01:52;11.07;;;5.45;;
32838;SDS011;19182;41.820;12.808;2023-12-20T03:04:18;14.32;;;6.00;;
32838;SDS011;19182;41.820;12.808;2023-12-20T03:06:45;8.88;;;4.70;;
32838;SDS011;19182;41.820;12.808;2023-12-20T03:09:11;9.02;;;5.15;;
32838;SDS011;19182;41.820;12.808;2023-12-20T03:11:37;11.60;;;5.53;;
32838;SDS011;19182;41.820;12.808;2023-12-20T03:14:02;10.70;;;5.43;;
32838;SDS011;19182;41.820;12.808;2023-12-20T03:16:29;12.90;;;4.75;;
32838;SDS011;19182;41.820;12.808;2023-12-20T03:18:56;8.73;;;5.20;;
32838;SDS011;19182;41.820;12.808;2023-12-20T03:21:23;8.55;;;4.90;;
32838;SDS011;19182;41.820;12.808;2023-12-20T03:23:49;10.15;;;4.55;;
32838;SDS011;19182;41.820;12.808;2023-12-20T03:26:16;7.88;;;4.55;;
32838;SDS011;19182;41.820;12.808;2023-12-20T03:28:43;8.10;;;4.43;;
32838;SDS011;19182;41.820;12.808;2023-12-20T03:31:10;8.35;;;4.75;;
32838;SDS011;19182;41.820;12.808;2023-12-20T03:33:36;10.30;;;5.18;;
32838;SDS011;19182;41.820;12.808;2023-12-20T03:36:02;9.77;;;4.75;;
32838;SDS011;19182;41.820;12.808;2023-12-20T03:38:28;9.05;;;4.55;;
32838;SDS011;19182;41.820;12.808;2023-12-20T03:40:55;12.70;;;5.28;;
32838;SDS011;19182;41.820;12.808;2023-12-20T03:43:20;9.88;;;5.25;;
32838;SDS011;19182;41.820;12.808;2023-12-20T03:45:46;8.05;;;4.75;;
32838;SDS011;19182;41.820;12.808;2023-12-20T03:48:13;11.60;;;5.28;;
32838;SDS011;19182;41.820;12.808;2023-12-20T03:50:39;10.23;;;5.43;;
32838;SDS011;19182;41.820;12.808;2023-12-20T03:53:05;9.73;;;4.90;;
32838;SDS011;19182;41.820;12.808;2023-12-20T03:55:31;9.23;;;5.38;;
32838;SDS011;19182;41.820;12.808;2023-12-20T03:57:57;12.13;;;5.93;;
32838;SDS011;19182;41.820;12.808;2023-12-20T04:00:23;13.68;;;5.97;;
32838;SDS011;19182;41.820;12.808;2023-12-20T04:02:49;11.77;;;6.90;;
32838;SDS011;19182;41.820;12.808;2023-12-20T04:05:16;12.73;;;7.07;;
32838;SDS011;19182;41.820;12.808;2023-12-20T04:07:43;11.95;;;6.50;;
32838;SDS011;19182;41.820;12.808;2023-12-20T04:10:08;11.93;;;6.03;;
32838;SDS011;19182;41.820;12.808;2023-12-20T04:12:34;10.25;;;6.55;;
32838;SDS011;19182;41.820;12.808;2023-12-20T04:15:01;15.05;;;6.80;;
32838;SDS011;19182;41.820;12.808;2023-12-20T04:17:34;11.10;;;6.97;;
32838;SDS011;19182;41.820;12.808;2023-12-20T04:20:01;10.52;;;5.70;;
32838;SDS011;19182;41.820;12.808;2023-12-20T04:22:27;9.85;;;5.47;;
32838;SDS011;19182;41.820;12.808;2023-12-20T04:24:53;13.25;;;5.88;;
32838;SDS011;19182;41.820;12.808;2023-12-20T04:27:18;14.82;;;5.57;;
32838;SDS011;19182;41.820;12.808;2023-12-20T04:29:46;12.23;;;5.55;;
32838;SDS011;19182;41.820;12.808;2023-12-20T04:32:12;9.55;;;4.78;;
32838;SDS011;19182;41.820;12.808;2023-12-20T04:34:37;11.80;;;5.07;;
32838;SDS011;19182;41.820;12.808;2023-12-20T04:37:03;8.75;;;5.00;;
32838;SDS011;19182;41.820;12.808;2023-12-20T04:39:30;9.65;;;4.80;;
32838;SDS011;19182;41.820;12.808;2023-12-20T04:41:58;9.73;;;4.82;;
32838;SDS011;19182;41.820;12.808;2023-12-20T04:44:25;9.63;;;5.28;;
32838;SDS011;19182;41.820;12.808;2023-12-20T04:46:51;8.57;;;5.10;;
32838;SDS011;19182;41.820;12.808;2023-12-20T04:49:19;8.73;;;4.10;;
32838;SDS011;19182;41.820;12.808;2023-12-20T04:51:44;7.95;;;4.03;;
32838;SDS011;19182;41.820;12.808;2023-12-20T04:54:10;8.40;;;4.38;;
32838;SDS011;19182;41.820;12.808;2023-12-20T04:56:38;6.57;;;4.40;;
32838;SDS011;19182;41.820;12.808;2023-12-20T04:59:05;9.75;;;4.65;;
32838;SDS011;19182;41.820;12.808;2023-12-20T05:01:32;9.70;;;4.97;;
32838;SDS011;19182;41.820;12.808;2023-12-20T05:03:59;8.45;;;4.28;;
32838;SDS011;19182;41.820;12.808;2023-12-20T05:06:25;7.03;;;4.80;;
32838;SDS011;19182;41.820;12.808;2023-12-20T05:08:51;8.95;;;4.63;;
32838;SDS011;19182;41.820;12.808;2023-12-20T05:11:17;8.48;;;4.07;;
32838;SDS011;19182;41.820;12.808;2023-12-20T05:13:44;10.48;;;4.15;;
32838;SDS011;19182;41.820;12.808;2023-12-20T05:16:09;10.50;;;4.55;;
32838;SDS011;19182;41.820;12.808;2023-12-20T05:18:35;8.35;;;4.43;;
32838;SDS011;19182;41.820;12.808;2023-12-20T05:21:01;7.93;;;4.55;;
32838;SDS011;19182;41.820;12.808;2023-12-20T05:23:28;11.23;;;4.35;;
32838;SDS011;19182;41.820;12.808;2023-12-20T05:25:53;11.75;;;6.72;;
32838;SDS011;19182;41.820;12.808;2023-12-20T05:28:20;10.77;;;4.68;;
32838;SDS011;19182;41.820;12.808;2023-12-20T05:30:46;8.43;;;5.10;;
32838;SDS011;19182;41.820;12.808;2023-12-20T05:33:13;10.57;;;5.38;;
32838;SDS011;19182;41.820;12.808;2023-12-20T05:35:40;10.52;;;5.63;;
32838;SDS011;19182;41.820;12.808;2023-12-20T05:40:35;11.52;;;6.68;;
32838;SDS011;19182;41.820;12.808;2023-12-20T05:43:01;10.63;;;6.32;;
32838;SDS011;19182;41.820;12.808;2023-12-20T05:45:27;16.88;;;6.50;;
32838;SDS011;19182;41.820;12.808;2023-12-20T05:47:53;12.32;;;6.63;;
32838;SDS011;19182;41.820;12.808;2023-12-20T05:50:20;13.63;;;6.88;;
32838;SDS011;19182;41.820;12.808;2023-12-20T05:52:47;10.77;;;5.85;;
32838;SDS011;19182;41.820;12.808;2023-12-20T05:55:13;11.45;;;5.78;;
32838;SDS011;19182;41.820;12.808;2023-12-20T05:57:39;10.32;;;5.88;;
32838;SDS011;19182;41.820;12.808;2023-12-20T06:00:05;7.70;;;5.07;;
32838;SDS011;19182;41.820;12.808;2023-12-20T06:02:32;14.10;;;5.25;;
32838;SDS011;19182;41.820;12.808;2023-12-20T06:04:58;7.70;;;4.95;;
32838;SDS011;19182;41.820;12.808;2023-12-20T06:07:24;9.80;;;5.30;;
32838;SDS011;19182;41.820;12.808;2023-12-20T06:09:50;7.50;;;4.60;;
32838;SDS011;19182;41.820;12.808;2023-12-20T06:12:16;13.90;;;7.18;;
32838;SDS011;19182;41.820;12.808;2023-12-20T06:14:41;10.48;;;5.53;;
32838;SDS011;19182;41.820;12.808;2023-12-20T06:17:07;9.80;;;5.68;;
32838;SDS011;19182;41.820;12.808;2023-12-20T06:19:33;11.55;;;5.85;;
32838;SDS011;19182;41.820;12.808;2023-12-20T06:21:59;10.32;;;4.85;;
32838;SDS011;19182;41.820;12.808;2023-12-20T06:24:24;11.23;;;5.32;;
32838;SDS011;19182;41.820;12.808;2023-12-20T06:26:53;7.13;;;4.82;;
32838;SDS011;19182;41.820;12.808;2023-12-20T06:29:20;10.55;;;4.80;;
32838;SDS011;19182;41.820;12.808;2023-12-20T06:31:46;8.20;;;4.70;;
32838;SDS011;19182;41.820;12.808;2023-12-20T06:34:11;13.18;;;6.97;;
32838;SDS011;19182;41.820;12.808;2023-12-20T06:36:37;13.98;;;7.65;;
32838;SDS011;19182;41.820;12.808;2023-12-20T06:39:03;10.93;;;6.72;;
32838;SDS011;19182;41.820;12.808;2023-12-20T06:41:29;12.27;;;6.25;;
32838;SDS011;19182;41.820;12.808;2023-12-20T06:43:55;15.40;;;7.25;;
32838;SDS011;19182;41.820;12.808;2023-12-20T06:46:21;17.50;;;8.38;;
32838;SDS011;19182;41.820;12.808;2023-12-20T06:48:47;17.52;;;8.60;;
32838;SDS011;19182;41.820;12.808;2023-12-20T06:51:16;19.02;;;8.65;;
32838;SDS011;19182;41.820;12.808;2023-12-20T06:53:44;22.65;;;8.80;;
32838;SDS011;19182;41.820;12.808;2023-12-20T06:56:10;19.90;;;11.55;;
32838;SDS011;19182;41.820;12.808;2023-12-20T06:58:37;34.22;;;12.85;;
32838;SDS011;19182;41.820;12.808;2023-12-20T07:01:04;35.05;;;13.70;;
32838;SDS011;19182;41.820;12.808;2023-12-20T07:03:30;22.63;;;10.98;;
32838;SDS011;19182;41.820;12.808;2023-12-20T07:05:57;23.77;;;12.27;;
32838;SDS011;19182;41.820;12.808;2023-12-20T07:08:24;19.92;;;12.60;;
32838;SDS011;19182;41.820;12.808;2023-12-20T07:10:51;32.83;;;13.75;;
32838;SDS011;19182;41.820;12.808;2023-12-20T07:13:17;33.50;;;13.45;;
32838;SDS011;19182;41.820;12.808;2023-12-20T07:15:42;21.58;;;12.70;;
32838;SDS011;19182;41.820;12.808;2023-12-20T07:18:08;21.65;;;12.48;;
32838;SDS011;19182;41.820;12.808;2023-12-20T07:20:34;16.85;;;10.60;;
32838;SDS011;19182;41.820;12.808;2023-12-20T07:23:00;20.38;;;11.18;;
32838;SDS011;19182;41.820;12.808;2023-12-20T07:25:26;17.38;;;11.18;;
32838;SDS011;19182;41.820;12.808;2023-12-20T07:27:53;19.58;;;10.45;;
32838;SDS011;19182;41.820;12.808;2023-12-20T07:30:18;18.08;;;9.88;;
32838;SDS011;19182;41.820;12.808;2023-12-20T07:32:44;26.35;;;10.75;;
32838;SDS011;19182;41.820;12.808;2023-12-20T07:35:10;17.88;;;10.43;;
32838;SDS011;19182;41.820;12.808;2023-12-20T07:37:36;19.92;;;11.30;;
32838;SDS011;19182;41.820;12.808;2023-12-20T07:40:01;20.30;;;10.27;;
32838;SDS011;19182;41.820;12.808;2023-12-20T07:42:28;19.92;;;11.93;;
32838;SDS011;19182;41.820;12.808;2023-12-20T07:44:54;19.23;;;11.50;;
32838;SDS011;19182;41.820;12.808;2023-12-20T07:47:20;22.00;;;11.90;;
32838;SDS011;19182;41.820;12.808;2023-12-20T07:49:46;20.65;;;12.93;;
32838;SDS011;19182;41.820;12.808;2023-12-20T07:52:13;21.33;;;12.93;;
32838;SDS011;19182;41.820;12.808;2023-12-20T07:54:39;36.80;;;14.15;;
32838;SDS011;19182;41.820;12.808;2023-12-20T07:57:05;24.58;;;14.38;;
32838;SDS011;19182;41.820;12.808;2023-12-20T07:59:32;24.20;;;15.02;;
32838;SDS011;19182;41.820;12.808;2023-12-20T08:01:58;25.63;;;15.40;;
32838;SDS011;19182;41.820;12.808;2023-12-20T08:04:23;23.23;;;14.43;;
32838;SDS011;19182;41.820;12.808;2023-12-20T08:06:51;26.58;;;15.05;;
32838;SDS011;19182;41.820;12.808;2023-12-20T08:09:16;23.77;;;15.88;;
32838;SDS011;19182;41.820;12.808;2023-12-20T08:11:45;22.63;;;15.23;;
32838;SDS011;19182;41.820;12.808;2023-12-20T08:14:12;25.15;;;16.20;;
32838;SDS011;19182;41.820;12.808;2023-12-20T08:16:38;24.63;;;15.85;;
32838;SDS011;19182;41.820;12.808;2023-12-20T08:19:04;26.73;;;15.70;;
32838;SDS011;19182;41.820;12.808;2023-12-20T08:21:30;21.92;;;15.23;;
32838;SDS011;19182;41.820;12.808;2023-12-20T08:23:56;26.33;;;17.30;;
32838;SDS011;19182;41.820;12.808;2023-12-20T08:26:22;27.17;;;18.58;;
32838;SDS011;19182;41.820;12.808;2023-12-20T08:28:49;28.80;;;18.85;;
32838;SDS011;19182;41.820;12.808;2023-12-20T08:31:15;28.33;;;18.88;;
32838;SDS011;19182;41.820;12.808;2023-12-20T08:33:43;35.47;;;19.23;;
32838;SDS011;19182;41.820;12.808;2023-12-20T08:36:09;27.20;;;19.88;;
32838;SDS011;19182;41.820;12.808;2023-12-20T08:38:35;29.23;;;19.20;;
32838;SDS011;19182;41.820;12.808;2023-12-20T08:41:02;30.63;;;21.02;;
32838;SDS011;19182;41.820;12.808;2023-12-20T08:43:30;29.13;;;20.45;;
32838;SDS011;19182;41.820;12.808;2023-12-20T08:45:57;31.70;;;20.67;;
32838;SDS011;19182;41.820;12.808;2023-12-20T08:48:23;33.50;;;19.60;;
32838;SDS011;19182;41.820;12.808;2023-12-20T08:50:48;37.45;;;19.73;;
32838;SDS011;19182;41.820;12.808;2023-12-20T08:53:15;25.63;;;19.48;;
32838;SDS011;19182;41.820;12.808;2023-12-20T08:55:42;29.05;;;20.02;;
32838;SDS011;19182;41.820;12.808;2023-12-20T08:58:07;27.20;;;19.70;;
32838;SDS011;19182;41.820;12.808;2023-12-20T09:00:34;26.67;;;19.90;;
32838;SDS011;19182;41.820;12.808;2023-12-20T09:03:03;27.90;;;19.02;;
32838;SDS011;19182;41.820;12.808;2023-12-20T09:05:29;24.65;;;19.17;;
32838;SDS011;19182;41.820;12.808;2023-12-20T09:07:55;29.52;;;20.25;;
32838;SDS011;19182;41.820;12.808;2023-12-20T09:10:22;24.17;;;18.63;;
32838;SDS011;19182;41.820;12.808;2023-12-20T09:12:49;22.33;;;18.15;;
32838;SDS011;19182;41.820;12.808;2023-12-20T09:15:21;23.17;;;19.38;;
32838;SDS011;19182;41.820;12.808;2023-12-20T09:20:16;23.52;;;18.05;;
32838;SDS011;19182;41.820;12.808;2023-12-20T09:22:43;23.27;;;18.50;;
32838;SDS011;19182;41.820;12.808;2023-12-20T09:25:09;21.75;;;17.38;;
32838;SDS011;19182;41.820;12.808;2023-12-20T09:27:36;25.73;;;18.02;;
32838;SDS011;19182;41.820;12.808;2023-12-20T09:30:02;20.02;;;17.23;;
32838;SDS011;19182;41.820;12.808;2023-12-20T09:32:30;21.60;;;17.27;;
32838;SDS011;19182;41.820;12.808;2023-12-20T09:34:57;18.48;;;16.48;;
32838;SDS011;19182;41.820;12.808;2023-12-20T09:37:26;18.30;;;15.25;;
32838;SDS011;19182;41.820;12.808;2023-12-20T09:39:52;18.35;;;14.95;;
32838;SDS011;19182;41.820;12.808;2023-12-20T09:42:21;19.95;;;15.48;;
32838;SDS011;19182;41.820;12.808;2023-12-20T09:44:54;19.63;;;15.38;;
32838;SDS011;19182;41.820;12.808;2023-12-20T09:49:50;14.45;;;12.15;;
32838;SDS011;19182;41.820;12.808;2023-12-20T09:52:16;16.83;;;12.95;;
32838;SDS011;19182;41.820;12.808;2023-12-20T09:54:43;15.73;;;12.13;;
32838;SDS011;19182;41.820;12.808;2023-12-20T09:57:10;16.52;;;12.80;;
32838;SDS011;19182;41.820;12.808;2023-12-20T09:59:37;16.95;;;13.40;;
32838;SDS011;19182;41.820;12.808;2023-12-20T10:02:04;14.40;;;12.40;;
32838;SDS011;19182;41.820;12.808;2023-12-20T10:04:39;16.23;;;13.45;;
32838;SDS011;19182;41.820;12.808;2023-12-20T10:07:11;16.27;;;13.27;;
32838;SDS011;19182;41.820;12.808;2023-12-20T10:09:38;16.60;;;14.07;;
32838;SDS011;19182;41.820;12.808;2023-12-20T10:12:05;17.45;;;14.23;;
32838;SDS011;19182;41.820;12.808;2023-12-20T10:14:32;16.35;;;14.70;;
32838;SDS011;19182;41.820;12.808;2023-12-20T10:17:04;19.70;;;14.90;;
32838;SDS011;19182;41.820;12.808;2023-12-20T10:19:31;20.77;;;16.15;;
32838;SDS011;19182;41.820;12.808;2023-12-20T10:21:58;21.75;;;15.00;;
32838;SDS011;19182;41.820;12.808;2023-12-20T10:24:25;19.73;;;15.75;;
32838;SDS011;19182;41.820;12.808;2023-12-20T10:27:06;18.08;;;14.07;;
32838;SDS011;19182;41.820;12.808;2023-12-20T10:29:35;18.15;;;13.77;;
32838;SDS011;19182;41.820;12.808;2023-12-20T10:34:48;15.23;;;12.55;;
32838;SDS011;19182;41.820;12.808;2023-12-20T10:37:14;12.88;;;10.57;;
32838;SDS011;19182;41.820;12.808;2023-12-20T10:39:40;11.40;;;10.18;;
32838;SDS011;19182;41.820;12.808;2023-12-20T10:42:08;17.42;;;13.38;;
32838;SDS011;19182;41.820;12.808;2023-12-20T10:44:36;13.77;;;10.93;;
32838;SDS011;19182;41.820;12.808;2023-12-20T10:47:03;11.20;;;8.93;;
32838;SDS011;19182;41.820;12.808;2023-12-20T10:49:30;16.52;;;9.95;;
32838;SDS011;19182;41.820;12.808;2023-12-20T10:51:59;12.68;;;10.15;;
32838;SDS011;19182;41.820;12.808;2023-12-20T10:54:29;13.02;;;10.13;;
32838;SDS011;19182;41.820;12.808;2023-12-20T10:56:55;15.73;;;10.88;;
32838;SDS011;19182;41.820;12.808;2023-12-20T10:59:24;11.98;;;8.15;;
32838;SDS011;19182;41.820;12.808;2023-12-20T11:01:52;12.65;;;9.13;;
32838;SDS011;19182;41.820;12.808;2023-12-20T11:04:23;12.65;;;9.85;;
32838;SDS011;19182;41.820;12.808;2023-12-20T11:07:02;12.60;;;10.10;;
32838;SDS011;19182;41.820;12.808;2023-12-20T11:09:57;11.32;;;9.60;;
32838;SDS011;19182;41.820;12.808;2023-12-20T11:12:35;11.57;;;9.70;;
32838;SDS011;19182;41.820;12.808;2023-12-20T11:15:12;13.95;;;9.50;;
32838;SDS011;19182;41.820;12.808;2023-12-20T11:17:40;12.00;;;9.80;;
32838;SDS011;19182;41.820;12.808;2023-12-20T11:20:09;12.15;;;8.15;;
32838;SDS011;19182;41.820;12.808;2023-12-20T11:22:36;10.02;;;8.55;;
32838;SDS011;19182;41.820;12.808;2023-12-20T11:25:05;10.02;;;8.77;;
32838;SDS011;19182;41.820;12.808;2023-12-20T11:27:35;8.20;;;7.40;;
32838;SDS011;19182;41.820;12.808;2023-12-20T11:30:05;9.65;;;8.02;;
32838;SDS011;19182;41.820;12.808;2023-12-20T11:32:33;8.38;;;7.00;;
32838;SDS011;19182;41.820;12.808;2023-12-20T11:37:38;9.15;;;7.47;;
32838;SDS011;19182;41.820;12.808;2023-12-20T11:40:08;10.10;;;7.80;;
32838;SDS011;19182;41.820;12.808;2023-12-20T11:42:40;10.80;;;8.35;;
32838;SDS011;19182;41.820;12.808;2023-12-20T11:45:10;13.85;;;7.32;;
32838;SDS011;19182;41.820;12.808;2023-12-20T11:47:40;8.70;;;7.90;;
32838;SDS011;19182;41.820;12.808;2023-12-20T11:50:08;9.55;;;8.23;;
32838;SDS011;19182;41.820;12.808;2023-12-20T11:52:34;9.57;;;8.57;;
32838;SDS011;19182;41.820;12.808;2023-12-20T11:55:01;11.35;;;9.18;;
32838;SDS011;19182;41.820;12.808;2023-12-20T11:57:26;12.05;;;10.73;;
32838;SDS011;19182;41.820;12.808;2023-12-20T11:59:52;11.82;;;9.10;;
32838;SDS011;19182;41.820;12.808;2023-12-20T12:02:18;10.15;;;8.45;;
32838;SDS011;19182;41.820;12.808;2023-12-20T12:04:43;11.32;;;9.55;;
32838;SDS011;19182;41.820;12.808;2023-12-20T12:07:09;11.98;;;9.18;;
32838;SDS011;19182;41.820;12.808;2023-12-20T12:09:35;11.90;;;10.45;;
32838;SDS011;19182;41.820;12.808;2023-12-20T12:12:01;13.15;;;10.35;;
32838;SDS011;19182;41.820;12.808;2023-12-20T12:14:28;12.38;;;10.38;;
32838;SDS011;19182;41.820;12.808;2023-12-20T12:16:53;14.43;;;10.52;;
32838;SDS011;19182;41.820;12.808;2023-12-20T12:19:20;12.90;;;11.45;;
32838;SDS011;19182;41.820;12.808;2023-12-20T12:22:10;13.02;;;10.90;;
32838;SDS011;19182;41.820;12.808;2023-12-20T12:24:42;17.80;;;11.75;;
32838;SDS011;19182;41.820;12.808;2023-12-20T12:27:09;17.83;;;12.50;;
32838;SDS011;19182;41.820;12.808;2023-12-20T12:29:35;16.88;;;12.98;;
32838;SDS011;19182;41.820;12.808;2023-12-20T12:32:04;14.85;;;12.60;;
32838;SDS011;19182;41.820;12.808;2023-12-20T12:34:50;15.10;;;12.35;;
32838;SDS011;19182;41.820;12.808;2023-12-20T12:37:15;16.38;;;12.60;;
32838;SDS011;19182;41.820;12.808;2023-12-20T12:39:41;18.52;;;13.40;;
32838;SDS011;19182;41.820;12.808;2023-12-20T12:42:07;15.95;;;13.18;;
32838;SDS011;19182;41.820;12.808;2023-12-20T12:44:32;17.08;;;12.30;;
32838;SDS011;19182;41.820;12.808;2023-12-20T12:46:58;17.48;;;12.73;;
32838;SDS011;19182;41.820;12.808;2023-12-20T12:49:24;13.43;;;10.70;;
32838;SDS011;19182;41.820;12.808;2023-12-20T12:51:50;13.75;;;11.02;;
32838;SDS011;19182;41.820;12.808;2023-12-20T12:54:16;15.98;;;11.70;;
32838;SDS011;19182;41.820;12.808;2023-12-20T12:56:43;17.25;;;12.80;;
32838;SDS011;19182;41.820;12.808;2023-12-20T12:59:09;17.08;;;13.57;;
32838;SDS011;19182;41.820;12.808;2023-12-20T13:01:36;19.08;;;9.98;;
32838;SDS011;19182;41.820;12.808;2023-12-20T13:04:01;11.50;;;8.75;;
32838;SDS011;19182;41.820;12.808;2023-12-20T13:06:29;10.35;;;9.18;;
32838;SDS011;19182;41.820;12.808;2023-12-20T13:08:54;14.35;;;10.38;;
32838;SDS011;19182;41.820;12.808;2023-12-20T13:11:20;14.20;;;10.43;;
32838;SDS011;19182;41.820;12.808;2023-12-20T13:13:46;15.18;;;12.30;;
32838;SDS011;19182;41.820;12.808;2023-12-20T13:16:12;16.17;;;11.73;;
32838;SDS011;19182;41.820;12.808;2023-12-20T13:18:38;15.38;;;12.43;;
32838;SDS011;19182;41.820;12.808;2023-12-20T13:21:07;20.30;;;13.60;;
32838;SDS011;19182;41.820;12.808;2023-12-20T13:23:33;18.45;;;13.65;;
32838;SDS011;19182;41.820;12.808;2023-12-20T13:25:59;17.40;;;12.15;;
32838;SDS011;19182;41.820;12.808;2023-12-20T13:28:24;17.48;;;11.75;;
32838;SDS011;19182;41.820;12.808;2023-12-20T13:30:50;19.20;;;12.57;;
32838;SDS011;19182;41.820;12.808;2023-12-20T13:33:16;19.15;;;13.55;;
32838;SDS011;19182;41.820;12.808;2023-12-20T13:35:41;16.50;;;11.95;;
32838;SDS011;19182;41.820;12.808;2023-12-20T13:38:07;16.95;;;13.85;;
32838;SDS011;19182;41.820;12.808;2023-12-20T13:40:33;17.98;;;12.95;;
32838;SDS011;19182;41.820;12.808;2023-12-20T13:42:58;20.52;;;13.63;;
32838;SDS011;19182;41.820;12.808;2023-12-20T13:45:24;24.55;;;15.13;;
32838;SDS011;19182;41.820;12.808;2023-12-20T13:47:50;23.25;;;14.98;;
32838;SDS011;19182;41.820;12.808;2023-12-20T13:50:16;27.55;;;16.13;;
32838;SDS011;19182;41.820;12.808;2023-12-20T13:52:42;25.10;;;16.00;;
32838;SDS011;19182;41.820;12.808;2023-12-20T13:55:09;24.67;;;16.05;;
32838;SDS011;19182;41.820;12.808;2023-12-20T13:57:35;24.35;;;16.50;;
32838;SDS011;19182;41.820;12.808;2023-12-20T14:00:03;24.42;;;16.98;;
32838;SDS011;19182;41.820;12.808;2023-12-20T14:02:30;22.20;;;16.67;;
32838;SDS011;19182;41.820;12.808;2023-12-20T14:04:56;24.23;;;17.08;;
32838;SDS011;19182;41.820;12.808;2023-12-20T14:07:22;20.88;;;16.50;;
32838;SDS011;19182;41.820;12.808;2023-12-20T14:09:48;20.77;;;15.02;;
32838;SDS011;19182;41.820;12.808;2023-12-20T14:12:14;22.27;;;13.93;;
32838;SDS011;19182;41.820;12.808;2023-12-20T14:14:40;20.95;;;14.45;;
32838;SDS011;19182;41.820;12.808;2023-12-20T14:17:05;26.35;;;15.43;;
32838;SDS011;19182;41.820;12.808;2023-12-20T14:19:34;21.95;;;16.00;;
32838;SDS011;19182;41.820;12.808;2023-12-20T14:22:00;22.50;;;15.85;;
32838;SDS011;19182;41.820;12.808;2023-12-20T14:24:27;22.20;;;15.50;;
32838;SDS011;19182;41.820;12.808;2023-12-20T14:26:53;23.02;;;16.13;;
32838;SDS011;19182;41.820;12.808;2023-12-20T14:29:19;22.33;;;16.85;;